createdAt,value
2018-12-16T00:00:35.334Z,0.35
2018-12-16T00:03:03.843Z,0.32
2018-12-16T00:05:32.539Z,0.33
2018-12-16T00:08:00.975Z,0.33
2018-12-16T00:10:29.471Z,0.38
2018-12-16T00:12:57.916Z,0.37
2018-12-16T00:15:26.342Z,0.41
2018-12-16T00:18:01.248Z,0.42
2018-12-16T00:20:31.701Z,0.43
2018-12-16T00:23:00.511Z,0.41
2018-12-16T00:25:28.892Z,0.42
2018-12-16T00:27:57.711Z,0.39
2018-12-16T00:30:26.653Z,0.45
2018-12-16T00:32:55.051Z,0.46
2018-12-16T00:35:23.485Z,0.43
2018-12-16T00:37:52.241Z,0.50
2018-12-16T00:40:20.658Z,0.47
2018-12-16T00:42:49.075Z,0.44
2018-12-16T00:45:17.490Z,0.49
2018-12-16T00:47:47.518Z,0.51
2018-12-16T00:50:16.391Z,0.56
2018-12-16T00:52:44.820Z,0.53
2018-12-16T00:55:13.230Z,0.46
2018-12-16T00:57:41.651Z,0.43
2018-12-16T01:00:14.274Z,0.52
2018-12-16T01:02:43.243Z,0.42
2018-12-16T01:05:12.206Z,0.46
2018-12-16T01:07:40.681Z,0.49
2018-12-16T01:10:11.447Z,0.47
2018-12-16T01:12:39.867Z,0.38
2018-12-16T01:15:08.391Z,0.33
2018-12-16T01:17:36.842Z,0.30
2018-12-16T01:20:06.958Z,0.23
2018-12-16T01:22:35.885Z,0.10
2018-12-16T01:25:04.919Z,0.02
2018-12-16T01:27:33.353Z,-0.10
2018-12-16T01:30:01.803Z,-0.13
2018-12-16T01:32:30.204Z,-0.23
2018-12-16T01:34:58.594Z,-0.32
2018-12-16T01:37:26.999Z,-0.34
2018-12-16T01:39:55.444Z,-0.34
2018-12-16T01:42:24.038Z,-0.54
2018-12-16T01:44:52.439Z,-0.52
2018-12-16T01:47:20.802Z,-0.48
2018-12-16T01:49:49.219Z,-0.47
2018-12-16T01:52:17.602Z,-0.43
2018-12-16T01:54:46.012Z,-0.59
2018-12-16T01:57:14.596Z,-0.57
2018-12-16T01:59:43.031Z,-0.52
2018-12-16T02:02:11.525Z,-0.60
2018-12-16T02:04:39.995Z,-0.58
2018-12-16T02:07:08.387Z,-0.58
2018-12-16T02:09:36.787Z,-0.52
2018-12-16T02:12:05.319Z,-0.47
2018-12-16T02:14:34.223Z,-0.40
2018-12-16T02:17:02.810Z,-0.41
2018-12-16T02:19:31.227Z,-0.37
2018-12-16T02:21:59.663Z,-0.37
2018-12-16T02:24:28.099Z,-0.33
2018-12-16T02:26:56.611Z,-0.34
2018-12-16T02:29:25.040Z,-0.33
2018-12-16T02:31:53.498Z,-0.35
2018-12-16T02:34:21.983Z,-0.38
2018-12-16T02:36:50.380Z,-0.40
2018-12-16T02:39:18.816Z,-0.40
2018-12-16T02:41:47.278Z,-0.40
2018-12-16T02:44:15.716Z,-0.42
2018-12-16T02:46:44.169Z,-0.42
2018-12-16T02:49:12.684Z,-0.43
2018-12-16T02:51:41.237Z,-0.43
2018-12-16T02:54:09.756Z,-0.46
2018-12-16T02:56:38.208Z,-0.47
2018-12-16T02:59:06.679Z,-0.52
2018-12-16T03:01:35.103Z,-0.49
2018-12-16T03:04:03.768Z,-0.52
2018-12-16T03:06:32.196Z,-0.55
2018-12-16T03:09:00.631Z,-0.53
2018-12-16T03:11:29.051Z,-0.53
2018-12-16T03:13:57.474Z,-0.54
2018-12-16T03:16:26.012Z,-0.60
2018-12-16T03:18:54.523Z,-0.60
2018-12-16T03:21:22.931Z,-0.60
2018-12-16T03:23:51.345Z,-0.61
2018-12-16T03:26:20.624Z,-0.61
2018-12-16T03:28:49.051Z,-0.62
2018-12-16T03:31:17.551Z,-0.61
2018-12-16T03:33:46.001Z,-0.61
2018-12-16T03:36:14.438Z,-0.63
2018-12-16T03:38:42.852Z,-0.60
2018-12-16T03:41:11.255Z,-0.60
2018-12-16T03:43:39.652Z,-0.58
2018-12-16T03:46:08.083Z,-0.57
2018-12-16T03:48:36.687Z,-0.58
2018-12-16T03:51:05.168Z,-0.56
2018-12-16T03:53:33.545Z,-0.57
2018-12-16T03:56:02.056Z,-0.68
2018-12-16T03:58:30.681Z,-0.69
2018-12-16T04:00:59.133Z,-0.67
2018-12-16T04:03:27.709Z,-0.65
2018-12-16T04:05:56.149Z,-0.80
2018-12-16T04:10:47.582Z,-0.74
2018-12-16T04:13:15.990Z,-0.77
2018-12-16T04:15:44.438Z,-0.72
2018-12-16T04:18:13.739Z,-0.71
2018-12-16T04:20:44.195Z,-0.69
2018-12-16T04:23:12.613Z,-0.68
2018-12-16T04:25:41.046Z,-0.69
2018-12-16T04:28:09.759Z,-0.79
2018-12-16T04:30:39.088Z,-0.80
2018-12-16T04:33:07.516Z,-0.77
2018-12-16T04:35:35.955Z,-0.81
2018-12-16T04:38:04.499Z,-0.75
2018-12-16T04:40:32.883Z,-0.70
2018-12-16T04:43:02.551Z,-0.70
2018-12-16T04:45:30.939Z,-0.78
2018-12-16T04:47:59.393Z,-0.73
2018-12-16T04:50:27.812Z,-0.71
2018-12-16T04:52:56.690Z,-0.66
2018-12-16T04:55:25.134Z,-0.75
2018-12-16T04:57:53.567Z,-0.69
2018-12-16T05:00:21.989Z,-0.67
2018-12-16T05:02:50.421Z,-0.72
2018-12-16T05:05:18.855Z,-0.69
2018-12-16T05:07:48.087Z,-0.71
2018-12-16T05:10:27.780Z,-0.69
2018-12-16T05:12:56.398Z,-0.71
2018-12-16T05:15:24.967Z,-0.68
2018-12-16T05:17:53.691Z,-0.66
2018-12-16T05:20:22.088Z,-0.66
2018-12-16T05:22:50.514Z,-0.62
2018-12-16T05:25:18.895Z,-0.63
2018-12-16T05:27:47.307Z,-0.60
2018-12-16T05:30:15.980Z,-0.60
2018-12-16T05:32:44.440Z,-0.59
2018-12-16T05:35:13.335Z,-0.75
2018-12-16T05:37:41.735Z,-0.76
2018-12-16T05:40:10.255Z,-0.68
2018-12-16T05:42:38.645Z,-0.65
2018-12-16T05:45:07.110Z,-0.59
2018-12-16T05:47:35.484Z,-0.56
2018-12-16T05:50:04.776Z,-0.58
2018-12-16T05:52:33.181Z,-0.55
2018-12-16T05:55:01.741Z,-0.49
2018-12-16T05:57:30.125Z,-0.46
2018-12-16T05:59:58.563Z,-0.44
2018-12-16T06:02:26.929Z,-0.46
2018-12-16T06:04:55.360Z,-0.50
2018-12-16T06:07:23.849Z,-0.48
2018-12-16T06:09:52.263Z,-0.45
2018-12-16T06:12:20.660Z,-0.52
2018-12-16T06:14:49.140Z,-0.57
2018-12-16T06:17:17.539Z,-0.50
2018-12-16T06:19:45.959Z,-0.47
2018-12-16T06:22:14.327Z,-0.44
2018-12-16T06:24:42.727Z,-0.43
2018-12-16T06:27:11.318Z,-0.42
2018-12-16T06:29:41.235Z,-0.42
2018-12-16T06:32:09.788Z,-0.42
2018-12-16T06:34:38.280Z,-0.38
2018-12-16T06:37:09.641Z,-0.41
2018-12-16T06:39:38.113Z,-0.39
2018-12-16T06:42:06.610Z,-0.41
2018-12-16T06:44:35.078Z,-0.37
2018-12-16T06:47:03.784Z,-0.33
2018-12-16T06:49:32.259Z,-0.33
2018-12-16T06:52:02.420Z,-0.34
2018-12-16T06:54:31.960Z,-0.33
2018-12-16T06:57:01.157Z,-0.30
2018-12-16T06:59:31.101Z,-0.30
2018-12-16T07:02:01.196Z,-0.38
2018-12-16T07:04:31.462Z,-0.33
2018-12-16T07:07:01.160Z,-0.34
2018-12-16T07:09:31.065Z,-0.31
2018-12-16T07:12:01.283Z,-0.28
2018-12-16T07:14:31.251Z,-0.28
2018-12-16T07:16:59.734Z,-0.23
2018-12-16T07:19:28.636Z,-0.24
2018-12-16T07:21:58.291Z,-0.25
2018-12-16T07:24:29.551Z,-0.24
2018-12-16T07:26:58.385Z,-0.29
2018-12-16T07:29:28.478Z,-0.25
2018-12-16T07:31:59.931Z,-0.38
2018-12-16T07:34:29.486Z,-0.38
2018-12-16T07:37:00.747Z,-0.36
2018-12-16T07:39:30.569Z,-0.42
2018-12-16T07:42:06.509Z,-0.34
2018-12-16T07:44:37.964Z,-0.36
2018-12-16T07:47:08.384Z,-0.31
2018-12-16T07:49:38.222Z,-0.28
2018-12-16T07:52:07.756Z,-0.24
2018-12-16T07:54:36.599Z,-0.21
2018-12-16T07:57:06.712Z,-0.12
2018-12-16T07:59:35.565Z,-0.13
2018-12-16T08:02:06.480Z,-0.04
2018-12-16T08:04:35.090Z,0.00
2018-12-16T08:07:04.722Z,0.04
2018-12-16T08:09:34.096Z,0.09
2018-12-16T08:12:04.291Z,0.16
2018-12-16T08:14:34.039Z,0.06
2018-12-16T08:17:06.760Z,0.15
2018-12-16T08:19:37.376Z,0.08
2018-12-16T08:22:08.211Z,0.10
2018-12-16T08:24:38.181Z,0.20
2018-12-16T08:27:07.120Z,0.24
2018-12-16T08:29:37.396Z,0.31
2018-12-16T08:32:06.943Z,0.38
2018-12-16T08:34:36.000Z,0.44
2018-12-16T08:37:06.312Z,0.44
2018-12-16T08:39:36.624Z,0.51
2018-12-16T08:42:05.953Z,0.55
2018-12-16T08:44:36.939Z,0.60
2018-12-16T08:47:06.561Z,0.60
2018-12-16T08:49:35.783Z,0.66
2018-12-16T08:52:04.544Z,0.73
2018-12-16T08:54:34.691Z,0.48
2018-12-16T08:57:03.415Z,0.56
2018-12-16T08:59:32.870Z,0.72
2018-12-16T09:02:02.553Z,0.81
2018-12-16T09:04:32.443Z,0.92
2018-12-16T09:07:03.215Z,0.97
2018-12-16T09:09:36.556Z,1.06
2018-12-16T09:12:06.116Z,1.06
2018-12-16T09:14:35.762Z,1.16
2018-12-16T09:17:07.588Z,1.24
2018-12-16T09:19:36.841Z,0.97
2018-12-16T09:22:07.343Z,0.91
2018-12-16T09:24:37.948Z,0.80
2018-12-16T09:27:07.263Z,0.90
2018-12-16T09:29:37.041Z,1.12
2018-12-16T09:32:06.156Z,1.30
2018-12-16T09:34:36.636Z,1.38
2018-12-16T09:37:05.967Z,1.53
2018-12-16T09:39:35.765Z,1.63
2018-12-16T09:42:04.800Z,1.40
2018-12-16T09:44:34.963Z,1.12
2018-12-16T09:47:03.950Z,1.20
2018-12-16T09:49:33.740Z,1.14
2018-12-16T09:52:04.392Z,1.46
2018-12-16T09:54:33.384Z,1.79
2018-12-16T09:57:02.510Z,1.85
2018-12-16T09:59:31.475Z,1.99
2018-12-16T10:02:02.968Z,2.02
2018-12-16T10:04:33.541Z,1.79
2018-12-16T10:07:04.368Z,1.86
2018-12-16T10:09:32.802Z,1.61
2018-12-16T10:12:02.612Z,1.59
2018-12-16T10:14:32.556Z,1.70
2018-12-16T10:17:01.833Z,1.84
2018-12-16T10:19:31.416Z,1.89
2018-12-16T10:22:01.704Z,1.69
2018-12-16T10:24:31.278Z,1.72
2018-12-16T10:27:01.728Z,1.72
2018-12-16T10:29:31.649Z,1.51
2018-12-16T10:32:00.856Z,1.71
2018-12-16T10:34:31.120Z,1.98
2018-12-16T10:37:00.217Z,2.19
2018-12-16T10:39:28.939Z,2.36
2018-12-16T10:41:59.125Z,2.15
2018-12-16T10:44:30.433Z,2.31
2018-12-16T10:47:00.557Z,2.30
2018-12-16T10:49:29.862Z,2.46
2018-12-16T10:52:01.028Z,2.64
2018-12-16T10:54:36.758Z,2.82
2018-12-16T10:57:07.434Z,2.95
2018-12-16T10:59:36.684Z,2.93
2018-12-16T11:02:10.425Z,2.77
2018-12-16T11:04:39.190Z,2.76
2018-12-16T11:07:09.361Z,2.78
2018-12-16T11:09:39.691Z,2.85
2018-12-16T11:12:10.371Z,2.92
2018-12-16T11:14:41.430Z,2.97
2018-12-16T11:17:10.114Z,2.81
2018-12-16T11:19:38.629Z,2.75
2018-12-16T11:22:08.053Z,2.71
2018-12-16T11:24:37.029Z,2.84
2018-12-16T11:27:10.658Z,3.13
2018-12-16T11:29:40.032Z,3.38
2018-12-16T11:32:10.371Z,3.61
2018-12-16T11:34:39.894Z,3.73
2018-12-16T11:37:08.866Z,3.90
2018-12-16T11:39:38.131Z,3.88
2018-12-16T11:42:08.319Z,3.85
2018-12-16T11:44:37.192Z,3.88
2018-12-16T11:47:05.746Z,3.92
2018-12-16T11:49:36.677Z,3.65
2018-12-16T11:52:06.283Z,3.75
2018-12-16T11:54:36.272Z,3.68
2018-12-16T11:57:05.731Z,3.63
2018-12-16T11:59:35.510Z,3.61
2018-12-16T12:02:04.148Z,3.58
2018-12-16T12:04:34.174Z,3.56
2018-12-16T12:07:03.859Z,3.58
2018-12-16T12:09:32.811Z,3.55
2018-12-16T12:12:03.359Z,3.48
2018-12-16T12:14:36.060Z,3.48
2018-12-16T12:17:07.436Z,3.56
2018-12-16T12:19:41.976Z,3.54
2018-12-16T12:22:11.932Z,3.57
2018-12-16T12:24:42.533Z,3.49
2018-12-16T12:27:13.561Z,3.44
2018-12-16T12:29:43.132Z,3.31
2018-12-16T12:32:11.939Z,3.34
2018-12-16T12:34:41.215Z,3.30
2018-12-16T12:37:10.988Z,3.31
2018-12-16T12:39:41.088Z,3.30
2018-12-16T12:42:13.698Z,3.22
2018-12-16T12:44:44.239Z,3.07
2018-12-16T12:47:14.520Z,2.98
2018-12-16T12:49:45.113Z,2.91
2018-12-16T12:52:18.320Z,3.05
2018-12-16T12:54:48.586Z,3.30
2018-12-16T12:57:18.618Z,3.44
2018-12-16T12:59:48.934Z,3.62
2018-12-16T13:02:19.477Z,3.58
2018-12-16T13:04:50.903Z,3.61
2018-12-16T13:07:23.140Z,3.59
2018-12-16T13:09:54.839Z,3.64
2018-12-16T13:12:26.442Z,3.73
2018-12-16T13:14:55.570Z,3.70
2018-12-16T13:17:25.381Z,3.68
2018-12-16T13:19:54.893Z,3.56
2018-12-16T13:22:23.748Z,3.55
2018-12-16T13:25:05.303Z,3.54
2018-12-16T13:27:34.654Z,3.56
2018-12-16T13:30:03.672Z,3.55
2018-12-16T13:32:32.614Z,3.57
2018-12-16T13:35:01.360Z,3.54
2018-12-16T13:37:31.376Z,3.56
2018-12-16T13:40:00.099Z,3.52
2018-12-16T13:42:29.757Z,3.44
2018-12-16T13:45:00.303Z,3.45
2018-12-16T13:47:28.879Z,3.35
2018-12-16T13:49:58.698Z,3.30
2018-12-16T13:52:27.454Z,3.26
2018-12-16T13:54:56.621Z,3.31
2018-12-16T13:57:27.527Z,3.32
2018-12-16T13:59:57.232Z,3.32
2018-12-16T14:02:26.101Z,3.36
2018-12-16T14:07:07.084Z,3.44
2018-12-16T14:09:35.480Z,3.58
2018-12-16T14:12:03.860Z,3.57
2018-12-16T14:14:32.274Z,3.64
2018-12-16T14:17:00.660Z,3.63
2018-12-16T14:19:29.095Z,3.58
2018-12-16T14:21:57.484Z,3.50
2018-12-16T14:24:27.157Z,3.39
2018-12-16T14:27:13.764Z,3.38
2018-12-16T14:29:42.219Z,3.36
2018-12-16T14:32:10.590Z,3.16
2018-12-16T14:34:38.975Z,3.00
2018-12-16T14:37:07.644Z,2.68
2018-12-16T14:39:36.028Z,2.71
2018-12-16T14:42:04.664Z,2.70
2018-12-16T14:44:33.453Z,2.61
2018-12-16T14:47:01.843Z,2.37
2018-12-16T14:49:30.202Z,2.28
2018-12-16T14:51:58.592Z,2.27
2018-12-16T14:54:26.984Z,2.23
2018-12-16T14:56:55.407Z,2.29
2018-12-16T14:59:23.761Z,2.28
2018-12-16T15:01:52.195Z,2.17
2018-12-16T15:04:20.575Z,2.16
2018-12-16T15:06:48.965Z,2.17
2018-12-16T15:09:17.342Z,2.18
2018-12-16T15:11:45.781Z,2.03
2018-12-16T15:14:14.217Z,1.94
2018-12-16T15:16:42.627Z,1.84
2018-12-16T15:19:11.011Z,1.71
2018-12-16T15:21:40.016Z,1.61
2018-12-16T15:24:08.397Z,1.48
2018-12-16T15:26:36.843Z,1.41
2018-12-16T15:29:05.285Z,1.45
2018-12-16T15:31:33.687Z,1.53
2018-12-16T15:34:02.091Z,1.64
2018-12-16T15:36:30.491Z,1.74
2018-12-16T15:38:58.876Z,1.78
2018-12-16T15:41:27.353Z,1.77
2018-12-16T15:43:55.732Z,1.78
2018-12-16T15:46:24.153Z,1.79
2018-12-16T15:48:52.563Z,1.73
2018-12-16T15:51:21.231Z,1.62
2018-12-16T15:53:49.612Z,1.52
2018-12-16T15:56:18.022Z,1.40
2018-12-16T15:58:46.996Z,1.35
2018-12-16T16:01:15.543Z,1.31
2018-12-16T16:03:44.106Z,1.32
2018-12-16T16:06:12.814Z,1.25
2018-12-16T16:08:41.187Z,1.33
2018-12-16T16:11:09.640Z,1.23
2018-12-16T16:13:38.099Z,1.16
2018-12-16T16:16:06.589Z,1.18
2018-12-16T16:18:35.494Z,1.17
2018-12-16T16:21:03.998Z,1.20
2018-12-16T16:23:32.568Z,1.30
2018-12-16T16:26:01.055Z,1.38
2018-12-16T16:28:29.467Z,1.43
2018-12-16T16:30:58.022Z,1.46
2018-12-16T16:33:26.444Z,1.48
2018-12-16T16:35:54.865Z,1.44
2018-12-16T16:38:23.307Z,1.51
2018-12-16T16:40:52.763Z,1.46
2018-12-16T16:43:21.243Z,1.48
2018-12-16T16:45:49.628Z,1.51
2018-12-16T16:48:18.032Z,1.50
2018-12-16T16:50:46.468Z,1.56
2018-12-16T16:53:14.958Z,1.43
2018-12-16T16:55:43.689Z,1.21
2018-12-16T16:58:12.091Z,1.06
2018-12-16T17:00:40.473Z,1.01
2018-12-16T17:03:08.932Z,0.87
2018-12-16T17:05:37.549Z,0.74
2018-12-16T17:08:05.996Z,0.64
2018-12-16T17:10:34.396Z,0.63
2018-12-16T17:13:02.812Z,0.58
2018-12-16T17:15:31.628Z,0.55
2018-12-16T17:18:00.237Z,0.56
2018-12-16T17:20:28.634Z,0.54
2018-12-16T17:22:57.846Z,0.64
2018-12-16T17:25:26.337Z,0.69
2018-12-16T17:27:55.047Z,0.52
2018-12-16T17:30:23.539Z,0.37
2018-12-16T17:32:51.926Z,0.26
2018-12-16T17:35:20.432Z,0.26
2018-12-16T17:37:48.945Z,0.58
2018-12-16T17:40:17.441Z,0.77
2018-12-16T17:42:46.748Z,0.99
2018-12-16T17:45:15.213Z,1.08
2018-12-16T17:47:44.834Z,1.10
2018-12-16T17:50:13.562Z,1.08
2018-12-16T17:52:42.194Z,1.02
2018-12-16T17:55:10.760Z,0.92
2018-12-16T17:57:39.292Z,0.84
2018-12-16T18:00:09.952Z,0.86
2018-12-16T18:02:38.477Z,0.84
2018-12-16T18:05:07.332Z,0.88
2018-12-16T18:07:35.919Z,0.97
2018-12-16T18:10:05.069Z,0.91
2018-12-16T18:12:33.649Z,1.10
2018-12-16T18:15:02.148Z,1.23
2018-12-16T18:17:30.789Z,1.24
2018-12-16T18:19:59.193Z,1.31
2018-12-16T18:22:27.862Z,1.33
2018-12-16T18:24:56.338Z,1.28
2018-12-16T18:27:25.000Z,1.19
2018-12-16T18:29:53.424Z,1.07
2018-12-16T18:32:21.851Z,1.03
2018-12-16T18:34:50.333Z,1.02
2018-12-16T18:37:18.727Z,0.99
2018-12-16T18:39:47.115Z,0.92
2018-12-16T18:42:15.852Z,0.90
2018-12-16T18:44:44.255Z,1.06
2018-12-16T18:47:13.407Z,1.17
2018-12-16T18:49:42.193Z,1.05
2018-12-16T18:52:10.628Z,0.96
2018-12-16T18:54:39.039Z,0.80
2018-12-16T18:57:11.784Z,0.66
2018-12-16T18:59:42.371Z,0.54
2018-12-16T19:02:10.914Z,0.37
2018-12-16T19:04:39.352Z,0.29
2018-12-16T19:07:08.067Z,0.26
2018-12-16T19:09:36.516Z,0.22
2018-12-16T19:12:11.587Z,0.09
2018-12-16T19:14:40.422Z,-0.06
2018-12-16T19:17:08.978Z,-0.12
2018-12-16T19:19:37.456Z,-0.17
2018-12-16T19:22:13.260Z,-0.24
2018-12-16T19:24:50.621Z,-0.34
2018-12-16T19:27:20.340Z,-0.39
2018-12-16T19:29:51.005Z,-0.48
2018-12-16T19:32:35.134Z,-0.55
2018-12-16T19:35:06.714Z,-0.50
2018-12-16T19:37:35.221Z,-0.51
2018-12-16T19:40:03.743Z,-0.48
2018-12-16T19:42:32.516Z,-0.47
2018-12-16T19:45:01.615Z,-0.40
2018-12-16T19:47:30.135Z,-0.38
2018-12-16T19:50:02.620Z,-0.29
2018-12-16T19:52:33.790Z,-0.29
2018-12-16T19:55:02.551Z,-0.30
2018-12-16T19:57:30.949Z,-0.36
2018-12-16T20:00:04.708Z,-0.38
2018-12-16T20:02:39.318Z,-0.27
2018-12-16T20:05:12.721Z,-0.25
2018-12-16T20:07:41.128Z,-0.11
2018-12-16T20:10:10.735Z,-0.05
2018-12-16T20:12:39.631Z,0.04
2018-12-16T20:15:08.293Z,0.03
2018-12-16T20:17:37.679Z,0.03
2018-12-16T20:20:06.939Z,-0.10
2018-12-16T20:22:35.368Z,-0.13
2018-12-16T20:25:04.362Z,-0.11
2018-12-16T20:27:32.743Z,-0.12
2018-12-16T20:30:01.228Z,-0.14
2018-12-16T20:32:29.662Z,-0.16
2018-12-16T20:34:58.056Z,-0.14
2018-12-16T20:37:27.069Z,-0.15
2018-12-16T20:39:55.452Z,-0.15
2018-12-16T20:42:24.239Z,-0.12
2018-12-16T20:44:52.675Z,-0.16
2018-12-16T20:47:21.099Z,-0.19
2018-12-16T20:50:01.923Z,-0.27
2018-12-16T20:52:30.370Z,-0.29
2018-12-16T20:54:58.771Z,-0.27
2018-12-16T20:57:27.145Z,-0.12
2018-12-16T20:59:55.532Z,-0.06
2018-12-16T21:02:41.412Z,-0.05
2018-12-16T21:05:11.041Z,0.01
2018-12-16T21:07:39.418Z,0.04
2018-12-16T21:10:07.949Z,0.00
2018-12-16T21:13:45.256Z,-0.02
2018-12-16T21:16:19.048Z,-0.04
2018-12-16T21:18:47.506Z,-0.06
2018-12-16T21:21:16.049Z,-0.11
2018-12-16T21:23:44.501Z,-0.15
2018-12-16T21:26:12.891Z,-0.16
2018-12-16T21:28:42.539Z,-0.18
2018-12-16T21:31:11.245Z,-0.21
2018-12-16T21:33:39.670Z,-0.19
2018-12-16T21:36:08.047Z,-0.14
2018-12-16T21:38:36.459Z,-0.16
2018-12-16T21:41:05.756Z,-0.15
2018-12-16T21:43:39.143Z,-0.15
2018-12-16T21:46:07.533Z,-0.13
2018-12-16T21:48:35.940Z,-0.10
2018-12-16T21:51:04.436Z,-0.09
2018-12-16T21:53:32.827Z,-0.06
2018-12-16T21:56:01.238Z,-0.09
2018-12-16T21:58:29.751Z,-0.09
2018-12-16T22:00:58.139Z,-0.07
2018-12-16T22:03:26.509Z,-0.06
2018-12-16T22:05:55.061Z,-0.11
2018-12-16T22:08:23.447Z,-0.12
2018-12-16T22:10:52.909Z,-0.13
2018-12-16T22:13:21.276Z,-0.12
2018-12-16T22:15:49.760Z,-0.11
2018-12-16T22:18:18.127Z,-0.14
2018-12-16T22:20:46.520Z,-0.14
2018-12-16T22:23:14.891Z,-0.15
2018-12-16T22:25:43.304Z,-0.19
2018-12-16T22:28:11.683Z,-0.19
2018-12-16T22:30:40.147Z,-0.22
2018-12-16T22:33:08.538Z,-0.26
2018-12-16T22:35:36.936Z,-0.37
2018-12-16T22:38:05.380Z,-0.38
2018-12-16T22:40:35.556Z,-0.38
2018-12-16T22:43:04.111Z,-0.35
2018-12-16T22:45:32.508Z,-0.38
2018-12-16T22:48:00.919Z,-0.42
2018-12-16T22:50:29.299Z,-0.48
2018-12-16T22:52:57.728Z,-0.50
2018-12-16T22:55:26.155Z,-0.56
2018-12-16T22:57:54.532Z,-0.65
2018-12-16T23:00:23.816Z,-0.65
2018-12-16T23:02:53.204Z,-0.68
2018-12-16T23:05:21.672Z,-0.63
2018-12-16T23:07:50.039Z,-0.52
2018-12-16T23:10:18.452Z,-0.47
2018-12-16T23:12:46.927Z,-0.42
2018-12-16T23:15:15.391Z,-0.41
2018-12-16T23:17:43.814Z,-0.42
2018-12-16T23:20:19.498Z,-0.49
2018-12-16T23:22:48.101Z,-0.57
2018-12-16T23:25:16.735Z,-0.59
2018-12-16T23:27:45.119Z,-0.62
2018-12-16T23:30:13.502Z,-0.61
2018-12-16T23:32:41.935Z,-0.54
2018-12-16T23:35:10.368Z,-0.53
2018-12-16T23:37:38.767Z,-0.59
2018-12-16T23:40:07.461Z,-0.62
2018-12-16T23:42:35.848Z,-0.55
2018-12-16T23:45:05.074Z,-0.44
2018-12-16T23:47:33.444Z,-0.48
2018-12-16T23:50:02.160Z,-0.49
2018-12-16T23:52:30.515Z,-0.44
2018-12-16T23:54:59.015Z,-0.47
2018-12-16T23:57:29.316Z,-0.57
2018-12-16T23:59:58.019Z,-0.47
